createdAt,value
2023-04-19T00:00:09.607Z,99.90
2023-04-19T00:02:37.907Z,99.90
2023-04-19T00:05:06.407Z,99.90
2023-04-19T00:07:33.506Z,99.90
2023-04-19T00:10:00.489Z,99.90
2023-04-19T00:12:27.393Z,99.90
2023-04-19T00:14:54.187Z,99.90
2023-04-19T00:17:21.302Z,99.90
2023-04-19T00:19:48.453Z,99.90
2023-04-19T00:22:15.616Z,99.90
2023-04-19T00:24:42.589Z,99.90
2023-04-19T00:27:09.514Z,99.90
2023-04-19T00:29:36.319Z,99.90
2023-04-19T00:32:05.830Z,99.90
2023-04-19T00:34:32.964Z,99.90
2023-04-19T00:37:00.045Z,99.90
2023-04-19T00:39:26.970Z,99.90
2023-04-19T00:41:54.088Z,99.90
2023-04-19T00:44:20.974Z,99.90
2023-04-19T00:46:48.293Z,99.90
2023-04-19T00:49:18.339Z,99.90
2023-04-19T00:51:45.277Z,99.90
2023-04-19T00:54:13.356Z,99.90
2023-04-19T00:56:41.125Z,99.90
2023-04-19T00:59:08.608Z,99.90
2023-04-19T01:01:38.682Z,99.90
2023-04-19T01:04:06.420Z,99.90
2023-04-19T01:06:34.789Z,99.90
2023-04-19T01:09:01.979Z,99.90
2023-04-19T01:11:29.394Z,99.90
2023-04-19T01:13:56.667Z,99.90
2023-04-19T01:16:24.525Z,99.90
2023-04-19T01:18:51.685Z,99.90
2023-04-19T01:21:18.649Z,99.90
2023-04-19T01:23:45.732Z,99.90
2023-04-19T01:26:12.576Z,99.90
2023-04-19T01:28:39.448Z,99.90
2023-04-19T01:31:06.566Z,99.90
2023-04-19T01:33:33.444Z,99.90
2023-04-19T01:36:00.258Z,99.90
2023-04-19T01:38:27.078Z,99.90
2023-04-19T01:40:56.736Z,99.90
2023-04-19T01:43:24.926Z,99.90
2023-04-19T01:45:51.754Z,99.90
2023-04-19T01:48:19.731Z,99.90
2023-04-19T01:50:46.583Z,99.90
2023-04-19T01:53:13.513Z,99.90
2023-04-19T01:55:40.372Z,99.90
2023-04-19T01:58:07.343Z,99.90
2023-04-19T02:00:34.371Z,99.90
2023-04-19T02:03:04.500Z,99.90
2023-04-19T02:05:31.398Z,99.90
2023-04-19T02:08:01.284Z,99.90
2023-04-19T02:10:30.778Z,99.90
2023-04-19T02:12:57.595Z,99.90
2023-04-19T02:15:24.413Z,99.90
2023-04-19T02:17:51.324Z,99.90
2023-04-19T02:20:19.364Z,99.90
2023-04-19T02:22:47.826Z,99.90
2023-04-19T02:25:15.676Z,99.90
2023-04-19T02:27:42.667Z,99.90
2023-04-19T02:30:09.975Z,99.90
2023-04-19T02:32:36.927Z,99.90
2023-04-19T02:35:06.913Z,99.90
2023-04-19T02:37:33.672Z,99.90
2023-04-19T02:40:00.636Z,99.90
2023-04-19T02:42:29.218Z,99.90
2023-04-19T02:44:56.189Z,99.90
2023-04-19T02:47:24.702Z,99.90
2023-04-19T02:49:51.585Z,99.90
2023-04-19T02:52:19.495Z,99.90
2023-04-19T02:54:46.392Z,99.90
2023-04-19T02:57:13.318Z,99.90
2023-04-19T02:59:42.385Z,99.90
2023-04-19T03:02:09.293Z,99.90
2023-04-19T03:04:36.577Z,99.90
2023-04-19T03:07:03.709Z,99.90
2023-04-19T03:09:31.077Z,99.90
2023-04-19T03:11:58.168Z,99.90
2023-04-19T03:14:25.036Z,99.90
2023-04-19T03:16:52.314Z,99.90
2023-04-19T03:19:19.381Z,99.90
2023-04-19T03:21:50.414Z,99.90
2023-04-19T03:24:31.755Z,99.90
2023-04-19T03:27:05.420Z,99.90
2023-04-19T03:29:32.300Z,99.90
2023-04-19T03:32:09.344Z,99.90
2023-04-19T03:34:36.476Z,99.90
2023-04-19T03:37:03.406Z,99.90
2023-04-19T03:39:32.275Z,99.90
2023-04-19T03:42:03.597Z,99.90
2023-04-19T03:44:47.616Z,99.90
2023-04-19T03:47:17.100Z,99.90
2023-04-19T03:49:47.008Z,99.90
2023-04-19T03:52:14.016Z,99.90
2023-04-19T03:54:40.831Z,99.90
2023-04-19T03:57:17.633Z,99.90
2023-04-19T03:59:44.568Z,99.90
2023-04-19T04:02:11.787Z,99.90
2023-04-19T04:04:39.181Z,99.90
2023-04-19T04:07:07.884Z,99.90
2023-04-19T04:09:34.809Z,99.90
2023-04-19T04:12:02.970Z,99.90
2023-04-19T04:14:31.017Z,99.90
2023-04-19T04:16:58.908Z,99.90
2023-04-19T04:19:26.142Z,99.90
2023-04-19T04:21:53.108Z,99.90
2023-04-19T04:24:22.261Z,99.90
2023-04-19T04:27:05.805Z,99.90
2023-04-19T04:29:36.765Z,99.90
2023-04-19T04:32:10.583Z,99.90
2023-04-19T04:34:42.639Z,99.90
2023-04-19T04:37:13.653Z,99.90
2023-04-19T04:39:41.340Z,99.90
2023-04-19T04:42:10.050Z,99.90
2023-04-19T04:44:37.289Z,99.90
2023-04-19T04:47:04.663Z,99.90
2023-04-19T04:49:37.669Z,99.90
2023-04-19T04:52:04.834Z,99.90
2023-04-19T04:54:36.836Z,99.90
2023-04-19T04:57:04.885Z,99.90
2023-04-19T04:59:31.726Z,99.90
2023-04-19T05:01:59.009Z,99.90
2023-04-19T05:04:26.045Z,99.90
2023-04-19T05:06:52.939Z,99.90
2023-04-19T05:09:24.635Z,99.90
2023-04-19T05:11:51.660Z,99.90
2023-04-19T05:14:18.791Z,99.90
2023-04-19T05:16:46.252Z,99.90
2023-04-19T05:19:13.142Z,99.90
2023-04-19T05:21:45.673Z,99.90
2023-04-19T05:24:14.237Z,99.90
2023-04-19T05:26:41.684Z,99.90
2023-04-19T05:29:09.762Z,99.90
2023-04-19T05:31:45.560Z,99.90
2023-04-19T05:34:23.093Z,99.90
2023-04-19T05:36:50.782Z,99.90
2023-04-19T05:39:17.638Z,99.90
2023-04-19T05:41:44.538Z,99.90
2023-04-19T05:44:11.348Z,99.90
2023-04-19T05:46:38.330Z,99.90
2023-04-19T05:49:07.174Z,99.90
2023-04-19T05:51:54.540Z,99.90
2023-04-19T05:54:36.012Z,99.90
2023-04-19T05:57:04.152Z,99.90
2023-04-19T05:59:31.276Z,99.90
2023-04-19T06:01:58.363Z,99.90
2023-04-19T06:04:25.440Z,99.90
2023-04-19T06:06:52.435Z,99.90
2023-04-19T06:09:19.441Z,99.90
2023-04-19T06:11:50.610Z,99.90
2023-04-19T06:14:19.114Z,99.90
2023-04-19T06:16:46.640Z,99.90
2023-04-19T06:19:13.688Z,99.90
2023-04-19T06:21:40.624Z,99.90
2023-04-19T06:24:07.852Z,99.90
2023-04-19T06:26:34.892Z,99.90
2023-04-19T06:29:01.750Z,99.90
2023-04-19T06:31:28.746Z,99.90
2023-04-19T06:33:55.778Z,99.90
2023-04-19T06:36:22.670Z,99.90
2023-04-19T06:38:50.359Z,99.90
2023-04-19T06:41:17.765Z,99.90
2023-04-19T06:43:44.977Z,99.90
2023-04-19T06:46:14.040Z,99.90
2023-04-19T06:48:41.268Z,99.90
2023-04-19T06:51:08.364Z,99.90
2023-04-19T06:53:35.744Z,99.90
2023-04-19T06:56:06.872Z,99.90
2023-04-19T06:58:35.182Z,99.90
2023-04-19T07:01:04.492Z,99.90
2023-04-19T07:03:31.879Z,99.90
2023-04-19T07:05:58.999Z,99.90
2023-04-19T07:08:32.275Z,99.90
2023-04-19T07:11:02.473Z,99.90
2023-04-19T07:13:29.321Z,99.90
2023-04-19T07:15:56.316Z,99.90
2023-04-19T07:18:23.184Z,99.90
2023-04-19T07:20:50.081Z,99.90
2023-04-19T07:23:17.135Z,99.90
2023-04-19T07:25:44.092Z,99.90
2023-04-19T07:28:11.098Z,99.90
2023-04-19T07:30:38.028Z,99.90
2023-04-19T07:33:05.115Z,99.90
2023-04-19T07:35:31.992Z,99.90
2023-04-19T07:37:58.870Z,99.90
2023-04-19T07:40:25.962Z,99.90
2023-04-19T07:42:55.722Z,99.90
2023-04-19T07:45:22.883Z,99.90
2023-04-19T07:47:49.676Z,99.90
2023-04-19T07:50:16.660Z,99.90
2023-04-19T07:52:43.616Z,99.90
2023-04-19T07:55:10.824Z,99.90
2023-04-19T07:57:37.584Z,99.90
2023-04-19T08:00:04.984Z,99.90
2023-04-19T08:02:48.829Z,99.90
2023-04-19T08:05:20.159Z,99.90
2023-04-19T08:07:47.515Z,99.90
2023-04-19T08:10:14.716Z,99.90
2023-04-19T08:12:50.731Z,99.90
2023-04-19T08:16:13.349Z,99.90
2023-04-19T08:18:15.690Z,99.90
2023-04-19T08:20:42.715Z,99.90
2023-04-19T08:23:21.497Z,99.90
2023-04-19T08:25:51.413Z,99.90
2023-04-19T08:28:19.156Z,99.90
2023-04-19T08:30:46.360Z,99.90
2023-04-19T08:33:13.247Z,99.90
2023-04-19T08:35:41.795Z,99.90
2023-04-19T08:38:09.524Z,99.90
2023-04-19T08:40:41.766Z,99.90
2023-04-19T08:43:08.770Z,99.90
2023-04-19T08:45:36.368Z,99.90
2023-04-19T08:48:04.473Z,99.90
2023-04-19T08:50:38.741Z,99.90
2023-04-19T08:53:24.705Z,99.90
2023-04-19T08:56:12.916Z,99.90
2023-04-19T08:59:03.839Z,99.90
2023-04-19T09:01:35.940Z,99.90
2023-04-19T09:04:21.665Z,99.90
2023-04-19T09:06:53.793Z,99.90
2023-04-19T09:11:57.946Z,99.90
2023-04-19T09:14:27.513Z,99.90
2023-04-19T09:16:54.908Z,99.90
2023-04-19T09:19:25.160Z,99.90
2023-04-19T09:21:54.533Z,99.90
2023-04-19T09:25:14.475Z,99.90
2023-04-19T09:27:43.960Z,99.90
2023-04-19T09:30:20.828Z,99.90
2023-04-19T09:32:54.990Z,99.90
2023-04-19T09:35:21.932Z,99.90
2023-04-19T09:38:06.084Z,99.90
2023-04-19T09:40:34.203Z,99.90
2023-04-19T09:45:46.474Z,99.90
2023-04-19T09:48:14.023Z,99.90
2023-04-19T09:51:05.868Z,99.90
2023-04-19T09:53:34.899Z,99.90
2023-04-19T09:56:03.941Z,99.90
2023-04-19T09:58:46.307Z,99.90
2023-04-19T10:01:20.079Z,99.90
2023-04-19T10:03:49.406Z,99.90
2023-04-19T10:08:50.228Z,99.90
2023-04-19T10:11:18.817Z,99.90
2023-04-19T10:13:48.546Z,99.90
2023-04-19T10:16:20.225Z,99.90
2023-04-19T10:18:50.649Z,99.90
2023-04-19T10:21:19.154Z,99.90
2023-04-19T10:23:46.627Z,99.90
2023-04-19T10:26:13.465Z,99.90
2023-04-19T10:28:42.374Z,99.90
2023-04-19T10:31:15.391Z,99.90
2023-04-19T10:33:42.467Z,99.90
2023-04-19T10:36:11.735Z,99.90
2023-04-19T10:38:42.344Z,99.90
2023-04-19T10:41:15.414Z,99.90
2023-04-19T10:43:55.707Z,99.90
2023-04-19T10:46:22.973Z,99.90
2023-04-19T10:48:59.740Z,99.90
2023-04-19T10:51:33.904Z,99.90
2023-04-19T10:54:04.607Z,99.90
2023-04-19T10:56:35.637Z,99.90
2023-04-19T10:59:02.897Z,99.90
2023-04-19T11:01:40.019Z,99.90
2023-04-19T11:04:09.162Z,99.90
2023-04-19T11:06:38.372Z,99.90
2023-04-19T11:09:10.166Z,99.90
2023-04-19T11:11:37.375Z,99.90
2023-04-19T11:14:04.596Z,99.90
2023-04-19T11:19:05.456Z,99.90
2023-04-19T11:21:33.195Z,99.90
2023-04-19T11:24:08.150Z,99.90
2023-04-19T11:26:35.276Z,99.90
2023-04-19T11:29:02.245Z,99.90
2023-04-19T11:31:29.337Z,99.90
2023-04-19T11:34:00.035Z,99.90
2023-04-19T11:36:27.155Z,99.90
2023-04-19T11:38:54.265Z,99.90
2023-04-19T11:41:21.125Z,99.90
2023-04-19T11:43:48.628Z,99.90
2023-04-19T11:46:15.685Z,99.90
2023-04-19T11:48:53.329Z,99.90
2023-04-19T11:51:20.781Z,99.90
2023-04-19T11:53:47.737Z,99.90
2023-04-19T11:56:15.436Z,99.90
2023-04-19T11:58:45.067Z,99.90
2023-04-19T12:01:13.793Z,99.90
2023-04-19T12:03:44.660Z,99.90
2023-04-19T12:06:22.266Z,99.90
2023-04-19T12:08:51.165Z,99.90
2023-04-19T12:11:21.640Z,99.90
2023-04-19T12:13:48.981Z,99.90
2023-04-19T12:16:28.176Z,99.90
2023-04-19T12:18:55.251Z,99.90
2023-04-19T12:21:31.086Z,99.90
2023-04-19T12:23:59.483Z,99.90
2023-04-19T12:26:30.497Z,99.90
2023-04-19T12:28:58.902Z,99.90
2023-04-19T12:31:26.116Z,99.90
2023-04-19T12:33:53.387Z,99.90
2023-04-19T12:36:21.060Z,99.90
2023-04-19T12:38:47.890Z,99.90
2023-04-19T12:41:14.951Z,99.90
2023-04-19T12:43:41.826Z,99.90
2023-04-19T12:46:08.761Z,99.90
2023-04-19T12:48:35.996Z,99.90
2023-04-19T12:51:03.548Z,99.90
2023-04-19T12:53:30.502Z,99.90
2023-04-19T12:55:57.330Z,99.90
2023-04-19T12:58:25.076Z,99.90
2023-04-19T13:00:51.933Z,99.40
2023-04-19T13:03:18.924Z,99.50
2023-04-19T13:05:45.851Z,99.90
2023-04-19T13:08:12.695Z,99.90
2023-04-19T13:10:39.591Z,98.80
2023-04-19T13:13:06.406Z,99.30
2023-04-19T13:15:33.370Z,99.70
2023-04-19T13:18:00.260Z,98.80
2023-04-19T13:20:27.166Z,98.70
2023-04-19T13:22:54.034Z,98.70
2023-04-19T13:25:20.944Z,99.50
2023-04-19T13:27:47.747Z,99.90
2023-04-19T13:30:15.128Z,99.90
2023-04-19T13:32:42.008Z,99.00
2023-04-19T13:35:09.267Z,98.20
2023-04-19T13:37:36.141Z,98.10
2023-04-19T13:40:18.319Z,98.00
2023-04-19T13:42:46.495Z,98.50
2023-04-19T13:45:14.551Z,98.70
2023-04-19T13:47:41.458Z,97.60
2023-04-19T13:50:08.697Z,97.90
2023-04-19T13:52:35.730Z,97.10
2023-04-19T13:55:02.652Z,97.30
2023-04-19T13:57:29.587Z,97.90
2023-04-19T13:59:56.440Z,97.20
2023-04-19T14:02:23.531Z,96.60
2023-04-19T14:04:50.653Z,96.10
2023-04-19T14:07:17.497Z,95.20
2023-04-19T14:09:44.742Z,95.70
2023-04-19T14:12:11.759Z,94.60
2023-04-19T14:14:38.544Z,93.60
2023-04-19T14:17:05.483Z,95.00
2023-04-19T14:19:32.329Z,94.30
2023-04-19T14:21:59.275Z,93.40
2023-04-19T14:24:26.149Z,93.20
2023-04-19T14:27:09.114Z,91.10
2023-04-19T14:29:37.552Z,90.10
2023-04-19T14:32:20.891Z,90.10
2023-04-19T14:34:51.718Z,90.90
2023-04-19T14:37:19.002Z,91.00
2023-04-19T14:39:46.523Z,89.30
2023-04-19T14:42:13.781Z,89.30
2023-04-19T14:44:41.229Z,91.30
2023-04-19T14:47:08.187Z,91.90
2023-04-19T14:49:35.157Z,90.60
2023-04-19T14:52:01.975Z,90.30
2023-04-19T14:54:29.684Z,90.80
2023-04-19T14:56:56.581Z,90.60
2023-04-19T14:59:23.486Z,90.30
2023-04-19T15:01:50.455Z,91.40
2023-04-19T15:04:17.516Z,92.50
2023-04-19T15:06:44.510Z,93.60
2023-04-19T15:09:11.591Z,93.90
2023-04-19T15:11:38.452Z,93.50
2023-04-19T15:14:05.258Z,94.60
2023-04-19T15:16:32.258Z,94.90
2023-04-19T15:18:59.140Z,95.10
2023-04-19T15:21:26.329Z,94.30
2023-04-19T15:23:54.605Z,94.20
2023-04-19T15:26:29.914Z,94.50
2023-04-19T15:29:05.327Z,94.40
2023-04-19T15:31:41.379Z,93.50
2023-04-19T15:34:15.451Z,94.50
2023-04-19T15:36:43.134Z,95.10
2023-04-19T15:39:09.927Z,94.10
2023-04-19T15:41:36.829Z,94.20
2023-04-19T15:44:03.628Z,93.40
2023-04-19T15:46:30.644Z,93.40
2023-04-19T15:48:57.529Z,93.90
2023-04-19T15:51:24.409Z,93.70
2023-04-19T15:53:52.133Z,93.50
2023-04-19T15:56:18.915Z,93.60
2023-04-19T15:58:45.752Z,93.90
2023-04-19T16:01:13.200Z,94.10
2023-04-19T16:03:41.319Z,94.90
2023-04-19T16:06:08.378Z,95.60
2023-04-19T16:08:35.366Z,96.60
2023-04-19T16:11:02.319Z,97.10
2023-04-19T16:13:31.337Z,97.70
2023-04-19T16:15:58.520Z,97.00
2023-04-19T16:18:25.545Z,96.80
2023-04-19T16:20:53.908Z,96.60
2023-04-19T16:23:20.845Z,96.60
2023-04-19T16:25:47.835Z,97.20
2023-04-19T16:28:14.673Z,98.00
2023-04-19T16:30:41.599Z,97.80
2023-04-19T16:33:08.513Z,98.50
2023-04-19T16:35:35.607Z,98.70
2023-04-19T16:38:04.447Z,99.10
2023-04-19T16:40:31.314Z,99.50
2023-04-19T16:42:58.165Z,99.60
2023-04-19T16:45:25.407Z,99.90
2023-04-19T16:47:52.747Z,99.90
2023-04-19T16:50:20.563Z,99.90
2023-04-19T16:52:47.483Z,99.90
2023-04-19T16:55:14.823Z,99.90
2023-04-19T16:57:41.685Z,99.90
2023-04-19T17:00:09.840Z,99.90
2023-04-19T17:02:37.028Z,99.90
2023-04-19T17:05:04.384Z,99.90
2023-04-19T17:07:31.281Z,99.90
2023-04-19T17:09:58.961Z,99.90
2023-04-19T17:12:25.940Z,99.90
2023-04-19T17:14:52.812Z,99.90
2023-04-19T17:17:20.126Z,99.90
2023-04-19T17:19:47.223Z,99.90
2023-04-19T17:22:14.930Z,99.90
2023-04-19T17:24:42.189Z,99.90
2023-04-19T17:27:09.470Z,99.90
2023-04-19T17:29:36.778Z,99.90
2023-04-19T17:32:04.108Z,99.90
2023-04-19T17:34:30.976Z,99.90
2023-04-19T17:36:57.867Z,99.90
2023-04-19T17:39:27.726Z,99.90
2023-04-19T17:41:56.076Z,99.90
2023-04-19T17:44:23.427Z,99.90
2023-04-19T17:46:50.442Z,99.90
2023-04-19T17:49:19.999Z,99.90
2023-04-19T17:51:47.415Z,99.90
2023-04-19T17:54:15.851Z,99.90
2023-04-19T17:56:42.857Z,99.90
2023-04-19T17:59:09.839Z,99.90
2023-04-19T18:01:36.878Z,99.90
2023-04-19T18:04:04.506Z,99.90
2023-04-19T18:06:31.815Z,99.90
2023-04-19T18:08:58.941Z,99.90
2023-04-19T18:11:28.178Z,99.90
2023-04-19T18:13:55.609Z,99.90
2023-04-19T18:16:22.474Z,99.90
2023-04-19T18:18:49.443Z,99.90
2023-04-19T18:21:17.006Z,99.90
2023-04-19T18:23:43.943Z,99.90
2023-04-19T18:26:10.750Z,99.90
2023-04-19T18:28:37.721Z,99.90
2023-04-19T18:31:05.436Z,99.90
2023-04-19T18:33:32.509Z,99.90
2023-04-19T18:35:59.519Z,99.90
2023-04-19T18:38:26.379Z,99.90
2023-04-19T18:40:53.189Z,99.90
2023-04-19T18:43:20.346Z,99.90
2023-04-19T18:45:54.536Z,99.90
2023-04-19T18:48:22.343Z,99.90
2023-04-19T18:50:49.176Z,99.90
2023-04-19T18:53:16.032Z,99.90
2023-04-19T18:55:42.903Z,99.90
2023-04-19T18:58:09.798Z,99.90
2023-04-19T19:00:36.700Z,99.90
2023-04-19T19:03:04.248Z,99.90
2023-04-19T19:05:31.271Z,99.90
2023-04-19T19:07:58.374Z,99.90
2023-04-19T19:10:54.212Z,99.90
2023-04-19T19:13:12.173Z,99.90
2023-04-19T19:15:42.321Z,99.90
2023-04-19T19:18:09.270Z,99.90
2023-04-19T19:20:36.314Z,99.90
2023-04-19T19:23:03.348Z,99.90
2023-04-19T19:25:30.182Z,99.90
2023-04-19T19:28:07.348Z,99.90
2023-04-19T19:30:39.771Z,99.90
2023-04-19T19:33:07.041Z,99.90
2023-04-19T19:35:33.942Z,99.90
2023-04-19T19:38:00.942Z,99.90
2023-04-19T19:40:31.149Z,99.90
2023-04-19T19:43:00.150Z,99.90
2023-04-19T19:45:28.592Z,99.90
2023-04-19T19:47:55.543Z,99.90
2023-04-19T19:52:52.439Z,99.90
2023-04-19T19:55:19.338Z,99.90
2023-04-19T20:00:42.062Z,99.90
2023-04-19T20:03:06.029Z,99.90
2023-04-19T20:05:33.930Z,99.90
2023-04-19T20:08:10.320Z,99.90
2023-04-19T20:10:38.464Z,99.90
2023-04-19T20:13:08.094Z,99.90
2023-04-19T20:15:38.292Z,99.90
2023-04-19T20:18:05.923Z,99.90
2023-04-19T20:20:32.905Z,99.90
2023-04-19T20:22:59.743Z,99.90
2023-04-19T20:25:26.792Z,99.90
2023-04-19T20:27:54.286Z,99.90
2023-04-19T20:30:21.185Z,99.90
2023-04-19T20:32:50.241Z,99.90
2023-04-19T20:35:17.357Z,99.90
2023-04-19T20:37:44.492Z,99.90
2023-04-19T20:40:14.436Z,99.90
2023-04-19T20:42:41.589Z,99.90
2023-04-19T20:45:12.772Z,99.90
2023-04-19T20:47:40.281Z,99.90
2023-04-19T20:50:08.145Z,99.90
2023-04-19T20:52:35.670Z,99.90
2023-04-19T20:55:02.621Z,99.90
2023-04-19T20:57:29.458Z,99.90
2023-04-19T20:59:56.283Z,99.90
2023-04-19T21:02:23.181Z,99.90
2023-04-19T21:04:50.243Z,99.90
2023-04-19T21:07:17.028Z,99.90
2023-04-19T21:09:43.965Z,99.90
2023-04-19T21:12:10.899Z,99.90
2023-04-19T21:14:37.735Z,99.90
2023-04-19T21:17:04.638Z,99.90
2023-04-19T21:19:31.520Z,99.90
2023-04-19T21:21:58.948Z,99.90
2023-04-19T21:24:26.252Z,99.90
2023-04-19T21:26:53.278Z,99.90
2023-04-19T21:29:20.854Z,99.90
2023-04-19T21:31:47.895Z,99.90
2023-04-19T21:34:14.851Z,99.90
2023-04-19T21:36:41.883Z,99.90
2023-04-19T21:39:10.017Z,99.90
2023-04-19T21:41:37.561Z,99.90
2023-04-19T21:44:04.627Z,99.90
2023-04-19T21:46:32.055Z,99.90
2023-04-19T21:48:59.265Z,99.90
2023-04-19T21:51:26.162Z,99.90
2023-04-19T21:53:52.999Z,99.90
2023-04-19T21:56:19.837Z,99.90
2023-04-19T21:58:47.281Z,99.90
2023-04-19T22:01:14.242Z,99.90
2023-04-19T22:03:41.268Z,99.90
2023-04-19T22:06:08.556Z,99.90
2023-04-19T22:08:35.651Z,99.90
2023-04-19T22:11:02.483Z,99.90
2023-04-19T22:13:30.200Z,99.90
2023-04-19T22:15:57.295Z,99.90
2023-04-19T22:18:24.352Z,99.90
2023-04-19T22:20:53.197Z,99.90
2023-04-19T22:23:20.230Z,99.90
2023-04-19T22:25:47.082Z,99.90
2023-04-19T22:28:13.901Z,99.90
2023-04-19T22:30:40.857Z,99.90
2023-04-19T22:33:07.815Z,99.90
2023-04-19T22:35:34.720Z,99.90
2023-04-19T22:38:01.532Z,99.90
2023-04-19T22:40:28.390Z,99.90
2023-04-19T22:42:55.654Z,99.90
2023-04-19T22:45:22.534Z,99.90
2023-04-19T22:47:49.388Z,99.90
2023-04-19T22:50:16.419Z,99.90
2023-04-19T22:52:44.608Z,99.90
2023-04-19T22:55:11.750Z,99.90
2023-04-19T22:57:38.560Z,99.90
2023-04-19T23:00:06.947Z,99.90
2023-04-19T23:02:33.914Z,99.90
2023-04-19T23:05:00.922Z,99.90
2023-04-19T23:07:28.927Z,99.90
2023-04-19T23:09:56.183Z,99.90
2023-04-19T23:12:24.054Z,99.90
2023-04-19T23:14:51.113Z,99.90
2023-04-19T23:17:18.320Z,99.90
2023-04-19T23:19:45.196Z,99.90
2023-04-19T23:22:12.036Z,99.90
2023-04-19T23:24:38.903Z,99.90
2023-04-19T23:27:05.731Z,99.90
2023-04-19T23:29:32.655Z,99.90
2023-04-19T23:32:01.131Z,99.90
2023-04-19T23:34:28.117Z,99.90
2023-04-19T23:36:55.039Z,99.90
2023-04-19T23:39:21.987Z,99.90
2023-04-19T23:41:48.795Z,99.90
2023-04-19T23:44:15.742Z,99.90
2023-04-19T23:46:42.641Z,99.90
2023-04-19T23:49:09.514Z,99.90
2023-04-19T23:51:36.427Z,99.90
2023-04-19T23:54:03.295Z,99.90
2023-04-19T23:56:30.413Z,99.90
2023-04-19T23:58:57.535Z,99.90
